Time;durP1;ratioP1;P1;durP2;ratioP2;P2;SDS_P1;SDS_P2;PMS_P1;PMS_P2;Temp;Humidity;BMP_temperature;BMP_pressure;BME280_temperature;BME280_humidity;BME280_pressure;Samples;Min_cycle;Max_cycle;Signal;HPM_P1;HPM_P2
2023/07/25 00:00:28;;;;;;;8.57;1.77;;;;;;;-146.27;84.46;82834.19;5070104;28;20028;-74
2023/07/25 00:02:53;;;;;;;7.03;2.08;;;;;;;-146.27;84.44;82874.38;5071368;28;20461;-74
2023/07/25 00:05:18;;;;;;;4.85;1.77;;;;;;;-146.27;85.08;82874.38;5071023;28;20507;-73
2023/07/25 00:07:44;;;;;;;4.18;2.15;;;;;;;-146.27;85.02;82858.28;5071201;28;20085;-73
2023/07/25 00:10:09;;;;;;;8.75;1.88;;;;;;;-146.27;85.17;82844.22;5071308;28;20040;-73
2023/07/25 00:12:36;;;;;;;6.40;1.75;;;;;;;-146.27;85.24;82842.22;5069100;28;20627;-73
2023/07/25 00:15:02;;;;;;;3.70;1.67;;;;;;;-146.27;85.50;82852.25;5069586;28;20043;-73
2023/07/25 00:17:28;;;;;;;9.70;1.90;;;;;;;-146.27;85.36;82866.31;5070721;28;20189;-73
2023/07/25 00:19:53;;;;;;;6.18;1.90;;;;;;;-146.27;85.70;82828.16;5070987;28;20495;-73
2023/07/25 00:22:18;;;;;;;4.80;1.55;;;;;;;-146.27;85.15;82814.09;5070607;28;20119;-73
2023/07/25 00:24:44;;;;;;;8.10;2.22;;;;;;;-146.27;85.54;82866.31;5069564;28;20468;-73
2023/07/25 00:27:09;;;;;;;4.00;1.63;;;;;;;-146.27;85.97;82852.25;5070583;28;20024;-73
2023/07/25 00:29:34;;;;;;;9.75;2.08;;;;;;;-146.27;85.49;82842.22;5070943;28;20070;-73
2023/07/25 00:32:00;;;;;;;8.32;1.75;;;;;;;-146.27;85.98;82886.41;5070340;28;20031;-73
2023/07/25 00:34:25;;;;;;;4.60;1.80;;;;;;;-146.27;85.83;82906.50;5070522;28;20129;-73
2023/07/25 00:36:51;;;;;;;7.95;1.83;;;;;;;-146.27;85.68;82898.47;5070186;28;20083;-73
2023/07/25 00:39:16;;;;;;;4.47;1.70;;;;;;;-146.27;85.96;82890.44;5070462;28;20069;-73
2023/07/25 00:41:42;;;;;;;5.55;1.70;;;;;;;-146.27;85.94;82916.56;5070267;28;20032;-73
2023/07/25 00:44:08;;;;;;;4.30;1.60;;;;;;;-146.27;86.16;82908.50;5070486;28;20483;-73
2023/07/25 00:46:33;;;;;;;5.25;1.73;;;;;;;-146.27;86.34;82896.47;5070140;28;20392;-73
2023/07/25 00:48:59;;;;;;;5.82;1.58;;;;;;;-146.27;86.26;82908.50;5070201;28;20025;-73
2023/07/25 00:51:25;;;;;;;8.38;1.70;;;;;;;-146.27;85.72;82914.53;5070384;28;20418;-73
2023/07/25 00:53:51;;;;;;;8.23;1.95;;;;;;;-146.27;86.26;82920.56;5069912;28;20086;-74
2023/07/25 00:56:18;;;;;;;6.22;1.90;;;;;;;-146.27;85.94;82894.47;5070239;28;20031;-72
2023/07/25 00:58:44;;;;;;;5.05;1.48;;;;;;;-146.27;86.14;82920.56;5070290;28;20021;-73
2023/07/25 01:01:10;;;;;;;5.97;2.72;;;;;;;-146.27;86.08;82900.47;5070207;28;20024;-73
2023/07/25 01:03:37;;;;;;;3.03;1.80;;;;;;;-146.27;87.02;82906.50;5069569;28;20094;-73
2023/07/25 01:06:04;;;;;;;7.63;1.92;;;;;;;-146.27;86.63;82886.41;5070028;28;20047;-75
2023/07/25 01:08:30;;;;;;;6.95;2.40;;;;;;;-146.27;86.48;82930.63;5064779;28;20038;-73
2023/07/25 01:10:55;;;;;;;7.78;1.67;;;;;;;-146.27;86.20;82940.66;5069983;28;20103;-73
2023/07/25 01:13:21;;;;;;;8.85;1.80;;;;;;;-146.27;86.22;82922.59;5069924;28;20049;-73
2023/07/25 01:15:48;;;;;;;12.05;1.98;;;;;;;-146.27;86.62;82956.75;5070204;28;20395;-73
2023/07/25 01:18:14;;;;;;;7.05;2.05;;;;;;;-146.27;86.74;82950.72;5069829;28;20039;-73
2023/07/25 01:20:40;;;;;;;3.90;1.70;;;;;;;-146.27;86.94;82944.69;5069652;28;20029;-73
2023/07/25 01:23:08;;;;;;;10.65;1.92;;;;;;;-146.27;87.02;82970.81;5069900;28;20065;-73
2023/07/25 01:25:34;;;;;;;5.95;1.92;;;;;;;-146.27;87.26;82976.81;5069619;28;20035;-73
2023/07/25 01:27:59;;;;;;;4.35;1.85;;;;;;;-146.27;87.17;82974.81;5069720;28;20452;-73
2023/07/25 01:30:24;;;;;;;7.97;1.70;;;;;;;-146.27;86.90;82984.88;5069781;28;20033;-73
2023/07/25 01:32:51;;;;;;;4.88;1.38;;;;;;;-146.27;87.10;82986.88;5069734;28;20027;-73
2023/07/25 01:35:16;;;;;;;7.10;1.65;;;;;;;-146.27;87.43;82988.88;5069741;28;20024;-73
2023/07/25 01:37:42;;;;;;;8.73;2.03;;;;;;;-146.27;87.72;83002.94;5069776;28;20074;-73
2023/07/25 01:40:08;;;;;;;4.32;1.70;;;;;;;-146.27;87.87;82994.91;5070196;28;20059;-76
2023/07/25 01:42:33;;;;;;;5.63;2.20;;;;;;;-146.27;87.90;82982.84;5069509;28;20503;-72
2023/07/25 01:44:58;;;;;;;9.65;2.20;;;;;;;-146.27;87.81;82978.84;5069820;28;20028;-72
2023/07/25 01:47:25;;;;;;;6.25;1.50;;;;;;;-146.27;88.01;82982.84;5069281;28;20468;-72
2023/07/25 01:49:52;;;;;;;11.75;1.90;;;;;;;-146.27;87.70;82942.66;5069513;28;20484;-74
2023/07/25 01:52:18;;;;;;;10.95;2.00;;;;;;;-146.27;87.69;82990.88;5069461;28;20027;-74
2023/07/25 01:54:43;;;;;;;7.90;2.28;;;;;;;-146.27;87.88;82986.88;5069435;28;20028;-74
2023/07/25 01:57:09;;;;;;;9.15;1.80;;;;;;;-146.27;88.57;82964.78;5068205;28;20066;-73
2023/07/25 01:59:34;;;;;;;4.65;1.58;;;;;;;-146.27;88.91;82992.91;5069426;28;20039;-72
2023/07/25 02:01:59;;;;;;;4.28;1.90;;;;;;;-146.27;88.95;82948.69;5069388;28;20099;-74
2023/07/25 02:04:25;;;;;;;5.70;2.00;;;;;;;-146.27;88.70;82946.69;5069458;28;20025;-72
2023/07/25 02:06:50;;;;;;;6.88;1.70;;;;;;;-146.27;88.79;82962.75;5069396;28;20025;-72
2023/07/25 02:09:16;;;;;;;9.15;2.25;;;;;;;-146.27;89.15;82958.75;5069498;28;20029;-73
2023/07/25 02:11:41;;;;;;;4.35;1.60;;;;;;;-146.27;89.72;82954.72;5069418;28;20033;-73
2023/07/25 02:14:06;;;;;;;11.02;2.38;;;;;;;-146.27;89.33;82894.47;5069518;28;20124;-73
2023/07/25 02:16:36;;;;;;;4.63;1.63;;;;;;;-146.27;89.33;82926.59;5073201;28;20021;-73
2023/07/25 02:19:04;;;;;;;6.18;1.83;;;;;;;-146.27;89.00;82896.47;5073323;28;20024;-73
2023/07/25 02:21:30;;;;;;;6.72;2.00;;;;;;;-146.27;89.38;82886.41;5073087;28;20030;-73
2023/07/25 02:23:55;;;;;;;3.35;1.55;;;;;;;-146.27;89.16;82878.38;5072859;28;20028;-73
2023/07/25 02:26:20;;;;;;;9.38;1.63;;;;;;;-146.27;88.12;82840.22;5073051;28;20025;-73
2023/07/25 02:28:46;;;;;;;4.47;1.50;;;;;;;-146.27;88.19;82818.13;5072851;28;20924;-73
2023/07/25 02:31:11;;;;;;;7.25;1.70;;;;;;;-146.27;88.56;82800.03;5072776;28;20033;-73
2023/07/25 02:33:38;;;;;;;6.70;1.40;;;;;;;-146.27;88.60;82759.84;5072881;28;20113;-73
2023/07/25 02:36:04;;;;;;;7.78;1.67;;;;;;;-146.27;88.89;82771.91;5073014;28;20438;-73
2023/07/25 02:38:29;;;;;;;4.60;1.70;;;;;;;-146.27;88.09;82685.50;5072932;28;20028;-74
2023/07/25 02:40:55;;;;;;;8.35;1.88;;;;;;;-146.27;88.19;82713.66;5072611;28;20031;-72
2023/07/25 02:43:22;;;;;;;6.20;1.45;;;;;;;-146.27;87.58;82693.56;5072842;28;20060;-72
2023/07/25 02:45:51;;;;;;;7.85;1.90;;;;;;;-146.27;86.79;82675.47;5072660;28;20480;-72
2023/07/25 02:48:17;;;;;;;7.32;1.60;;;;;;;-146.27;87.88;82665.44;5072258;28;20449;-72
2023/07/25 02:50:43;;;;;;;9.85;2.22;;;;;;;-146.27;86.83;82653.38;5072939;28;20028;-73
2023/07/25 02:53:08;;;;;;;8.25;1.75;;;;;;;-146.27;87.27;82657.41;5072209;28;20028;-71
2023/07/25 02:55:34;;;;;;;7.70;1.70;;;;;;;-146.27;86.39;82651.38;5072685;28;20089;-72
2023/07/25 02:57:59;;;;;;;4.97;1.45;;;;;;;-146.27;86.61;82667.44;5072666;28;20538;-73
2023/07/25 03:00:24;;;;;;;8.32;1.67;;;;;;;-146.27;86.05;82605.16;5072238;28;20062;-73
2023/07/25 03:02:50;;;;;;;7.72;2.33;;;;;;;-146.27;86.56;82601.16;5071929;28;20019;-73
2023/07/25 03:05:16;;;;;;;8.27;1.77;;;;;;;-146.27;87.62;82615.22;5072480;28;20029;-73
2023/07/25 03:07:42;;;;;;;7.95;2.20;;;;;;;-146.27;87.08;82560.97;5072099;28;20036;-73
2023/07/25 03:10:08;;;;;;;9.68;1.67;;;;;;;-146.27;87.08;82673.47;5072214;28;20468;-73
2023/07/25 03:12:33;;;;;;;3.90;1.50;;;;;;;-146.27;87.66;82601.16;5071801;28;20028;-72
2023/07/25 03:14:58;;;;;;;9.60;2.33;;;;;;;-146.27;87.08;82669.44;5072176;28;20063;-73
2023/07/25 03:17:24;;;;;;;4.55;1.73;;;;;;;-146.27;87.43;82679.50;5072181;28;20032;-74
2023/07/25 03:19:49;;;;;;;6.40;1.73;;;;;;;-146.27;87.68;82649.34;5072084;28;20024;-72
2023/07/25 03:22:18;;;;;;;7.20;1.90;;;;;;;-146.27;87.69;82633.28;5072058;28;20033;-72
2023/07/25 03:24:43;;;;;;;5.97;1.73;;;;;;;-146.27;87.72;82649.34;5071921;28;20119;-75
2023/07/25 03:27:09;;;;;;;8.77;1.85;;;;;;;-146.27;87.78;82645.34;5071319;28;20043;-73
2023/07/25 03:29:34;;;;;;;10.93;1.95;;;;;;;-146.27;87.86;82653.38;5072085;28;20074;-73
2023/07/25 03:31:59;;;;;;;10.20;1.58;;;;;;;-146.27;88.01;82757.84;5071962;28;20494;-73
2023/07/25 03:34:25;;;;;;;10.80;1.63;;;;;;;-146.27;88.43;82673.47;5071586;28;20079;-72
2023/07/25 03:36:50;;;;;;;10.93;1.77;;;;;;;-146.27;88.91;82657.41;5071868;28;20021;-73
2023/07/25 03:39:16;;;;;;;10.13;1.40;;;;;;;-146.27;88.80;82665.44;5069972;28;20048;-73
2023/07/25 03:41:41;;;;;;;8.40;2.10;;;;;;;-146.27;89.02;82655.38;5071629;28;20082;-73
2023/07/25 03:44:06;;;;;;;6.72;1.70;;;;;;;-146.27;89.02;82635.28;5071441;28;20028;-73
2023/07/25 03:46:32;;;;;;;7.70;1.63;;;;;;;-146.27;89.32;82653.38;5071685;28;20028;-73
2023/07/25 03:48:58;;;;;;;8.60;1.50;;;;;;;-146.27;89.41;82615.22;5071594;28;20100;-73
2023/07/25 03:51:23;;;;;;;5.03;1.70;;;;;;;-146.27;88.40;82657.41;5071259;28;20029;-73
2023/07/25 03:53:49;;;;;;;11.00;2.22;;;;;;;-146.27;87.71;82617.22;5070896;28;20033;-73
2023/07/25 03:56:14;;;;;;;10.82;2.88;;;;;;;-146.27;88.05;82591.09;5071315;28;20052;-73
2023/07/25 03:58:39;;;;;;;8.50;2.58;;;;;;;-146.27;88.96;82585.06;5069593;28;20082;-73
2023/07/25 04:01:05;;;;;;;7.53;1.60;;;;;;;-146.27;87.97;82538.88;5051396;28;20535;-73
2023/07/25 04:03:30;;;;;;;9.98;2.28;;;;;;;-146.27;88.35;82593.09;5066604;28;20332;-73
2023/07/25 04:05:55;;;;;;;10.48;1.58;;;;;;;-146.27;88.33;82571.00;5070924;28;20024;-73
2023/07/25 04:08:21;;;;;;;5.93;1.70;;;;;;;-146.27;88.06;82593.09;5070681;28;20687;-73
2023/07/25 04:10:46;;;;;;;12.18;1.90;;;;;;;-146.27;87.10;82583.06;5071002;28;20025;-73
2023/07/25 04:13:12;;;;;;;6.40;1.70;;;;;;;-146.27;87.43;82562.97;5066212;28;20049;-73
2023/07/25 04:15:37;;;;;;;6.72;1.52;;;;;;;-146.27;87.54;82567.00;5050981;28;20028;-73
2023/07/25 04:18:03;;;;;;;9.77;2.03;;;;;;;-146.27;86.55;82530.84;5051262;28;20047;-73
2023/07/25 04:20:28;;;;;;;9.65;1.52;;;;;;;-146.27;87.16;82556.94;5050821;28;20447;-73
2023/07/25 04:22:54;;;;;;;7.68;1.38;;;;;;;-146.27;86.46;82558.97;5050846;28;20044;-73
2023/07/25 04:25:19;;;;;;;11.57;1.83;;;;;;;-146.27;86.25;82556.94;5054806;28;20539;-73
2023/07/25 04:27:45;;;;;;;4.80;1.30;;;;;;;-146.27;85.63;82536.84;5070675;28;20028;-73
2023/07/25 04:30:10;;;;;;;5.78;1.20;;;;;;;-146.27;84.80;82548.91;5070590;28;20103;-73
2023/07/25 04:32:36;;;;;;;8.63;1.77;;;;;;;-146.27;84.82;82538.88;5070561;28;20396;-73
2023/07/25 04:35:01;;;;;;;4.88;1.35;;;;;;;-146.27;83.66;82532.84;5070854;28;20124;-73
2023/07/25 04:37:26;;;;;;;11.50;2.45;;;;;;;-146.27;82.81;82512.75;5070173;28;20020;-73
2023/07/25 04:39:52;;;;;;;5.55;1.38;;;;;;;-146.27;83.61;82571.00;5069867;28;20020;-73
2023/07/25 04:42:17;;;;;;;8.13;1.60;;;;;;;-146.27;82.22;82462.53;5070470;28;20051;-73
2023/07/25 04:44:43;;;;;;;19.50;2.25;;;;;;;-146.27;81.30;82522.78;5070414;28;20493;-73
2023/07/25 04:47:09;;;;;;;6.07;2.50;;;;;;;-146.27;82.22;82516.78;5070763;28;20467;-73
2023/07/25 04:49:34;;;;;;;5.20;1.65;;;;;;;-146.27;81.27;82482.63;5070144;28;20028;-73
2023/07/25 04:51:59;;;;;;;4.47;1.08;;;;;;;-146.27;81.63;82428.38;5069757;28;20032;-73
2023/07/25 04:54:25;;;;;;;9.15;1.65;;;;;;;-146.27;80.45;82470.56;5070178;28;20025;-73
2023/07/25 04:56:50;;;;;;;6.80;1.40;;;;;;;-146.27;82.12;82462.53;5069958;28;20320;-73
2023/07/25 04:59:15;;;;;;;5.10;1.33;;;;;;;-146.27;80.80;82452.47;5069808;28;20025;-73
2023/07/25 05:01:41;;;;;;;8.25;1.23;;;;;;;-146.27;80.51;82464.53;5070003;28;20444;-73
2023/07/25 05:04:06;;;;;;;8.65;1.67;;;;;;;-146.27;80.58;82432.41;5068727;28;20124;-73
2023/07/25 05:06:31;;;;;;;6.15;1.30;;;;;;;-146.27;79.57;82446.47;5068391;28;20028;-73
2023/07/25 05:08:57;;;;;;;13.57;1.60;;;;;;;-146.27;79.61;82454.50;5070449;28;20075;-73
2023/07/25 05:11:22;;;;;;;11.00;1.02;;;;;;;-146.27;79.14;82470.56;5070015;28;20404;-73
2023/07/25 05:13:47;;;;;;;18.13;3.92;;;;;;;-146.27;78.00;82400.25;5069681;28;20040;-73
2023/07/25 05:16:13;;;;;;;11.48;1.20;;;;;;;-146.27;76.17;82458.50;5070043;28;20032;-73
2023/07/25 05:18:38;;;;;;;3.25;0.95;;;;;;;-146.27;75.30;82434.41;5070575;28;20036;-74
2023/07/25 05:21:03;;;;;;;4.15;1.23;;;;;;;-146.27;76.11;82390.22;5070277;28;20031;-73
2023/07/25 05:23:29;;;;;;;6.32;1.13;;;;;;;-146.27;75.74;82420.34;5069824;28;20111;-71
2023/07/25 05:25:54;;;;;;;8.88;1.05;;;;;;;-146.27;75.59;82404.28;5069833;28;20485;-72
2023/07/25 05:28:20;;;;;;;5.05;1.00;;;;;;;-146.27;75.62;82368.13;5069800;28;20366;-74
2023/07/25 05:30:45;;;;;;;6.35;1.63;;;;;;;-146.27;75.20;82396.25;5069633;28;20047;-72
2023/07/25 05:33:10;;;;;;;3.85;1.25;;;;;;;-146.27;75.89;82370.13;5069563;28;20103;-73
2023/07/25 05:35:36;;;;;;;6.25;1.10;;;;;;;-146.27;75.48;82384.19;5069528;28;20404;-73
2023/07/25 05:38:02;;;;;;;11.70;1.05;;;;;;;-146.27;76.36;82348.03;5069588;28;20026;-73
2023/07/25 05:40:28;;;;;;;5.35;1.15;;;;;;;-146.27;76.55;82392.22;5069720;28;20043;-73
2023/07/25 05:42:53;;;;;;;6.63;1.20;;;;;;;-146.27;75.69;82404.28;5069587;28;20392;-73
2023/07/25 05:45:20;;;;;;;5.93;1.30;;;;;;;-146.27;76.05;82392.22;5069146;28;20024;-73
2023/07/25 05:47:46;;;;;;;8.13;1.00;;;;;;;-146.27;76.07;82420.34;5069337;28;20029;-72
2023/07/25 05:50:12;;;;;;;2.92;0.98;;;;;;;-146.27;75.00;82430.38;5071553;28;20020;-72
2023/07/25 05:52:37;;;;;;;3.58;0.95;;;;;;;-146.27;74.22;82400.25;5073527;28;20107;-73
2023/07/25 05:55:03;;;;;;;8.70;1.45;;;;;;;-146.27;75.78;82408.28;5073402;28;20028;-72
2023/07/25 05:57:28;;;;;;;3.00;1.10;;;;;;;-146.27;74.36;82396.25;5073231;28;20036;-73
2023/07/25 05:59:54;;;;;;;6.57;1.20;;;;;;;-146.27;74.66;82406.28;5073383;28;20064;-73
2023/07/25 06:02:19;;;;;;;6.13;1.13;;;;;;;-146.27;73.08;82368.13;5072977;28;20028;-73
2023/07/25 06:04:46;;;;;;;6.60;1.02;;;;;;;-146.27;74.01;82372.13;5072970;28;20036;-73
2023/07/25 06:07:13;;;;;;;5.45;1.05;;;;;;;-146.27;73.12;82376.16;5072802;28;20428;-72
2023/07/25 06:09:38;;;;;;;6.18;0.90;;;;;;;-146.27;74.00;82388.22;5072920;28;20024;-73
2023/07/25 06:12:06;;;;;;;3.13;1.10;;;;;;;-146.27;72.57;82344.00;5073033;28;20111;-72
2023/07/25 06:14:31;;;;;;;7.65;0.95;;;;;;;-146.27;71.94;82319.91;5072800;28;20037;-73
2023/07/25 06:16:56;;;;;;;4.50;1.17;;;;;;;-146.27;72.52;82303.84;5073349;28;20093;-73
2023/07/25 06:19:22;;;;;;;9.20;1.30;;;;;;;-146.27;72.38;82315.88;5072678;28;20032;-73
2023/07/25 06:21:47;;;;;;;6.53;1.17;;;;;;;-146.27;70.35;82293.78;5072915;28;20027;-72
2023/07/25 06:24:13;;;;;;;8.23;1.13;;;;;;;-146.27;70.41;82283.75;5072678;28;20041;-72
2023/07/25 06:26:38;;;;;;;4.45;0.80;;;;;;;-146.27;68.71;82362.09;5072897;28;20021;-73
2023/07/25 06:29:04;;;;;;;4.88;1.20;;;;;;;-146.27;68.72;82305.84;5072573;28;20455;-72
2023/07/25 06:31:29;;;;;;;6.40;0.90;;;;;;;-146.27;67.92;82275.72;5072826;28;20044;-73
2023/07/25 06:33:54;;;;;;;5.60;0.70;;;;;;;-146.27;67.93;82255.63;5072817;28;20512;-72
2023/07/25 06:36:20;;;;;;;2.92;0.80;;;;;;;-146.27;66.89;82211.44;5073009;28;20520;-73
2023/07/25 06:38:45;;;;;;;3.80;0.98;;;;;;;-146.27;66.55;82237.53;5072677;28;20073;-72
2023/07/25 06:41:10;;;;;;;8.32;1.33;;;;;;;-146.27;66.31;82203.41;5072902;28;20804;-72
2023/07/25 06:43:36;;;;;;;5.28;0.93;;;;;;;-146.27;65.56;82203.41;5071226;28;20099;-73
2023/07/25 06:46:01;;;;;;;4.20;0.95;;;;;;;-146.27;65.34;82219.47;5072584;28;20048;-73
2023/07/25 06:48:27;;;;;;;4.85;1.00;;;;;;;-146.27;65.95;82131.09;5072655;28;20086;-72
2023/07/25 06:50:52;;;;;;;4.60;0.90;;;;;;;-146.27;66.44;82113.00;5072567;28;20024;-72
2023/07/25 06:53:17;;;;;;;7.57;0.77;;;;;;;-146.27;64.29;82139.13;5072498;28;20024;-72
2023/07/25 06:55:44;;;;;;;5.88;0.82;;;;;;;-146.27;64.93;82090.91;5072599;28;20064;-72
2023/07/25 06:58:09;;;;;;;4.85;0.95;;;;;;;-146.27;64.52;82098.94;5072277;28;20024;-72
2023/07/25 07:00:37;;;;;;;4.70;0.50;;;;;;;-146.27;63.29;82048.72;5071911;28;20039;-74
2023/07/25 07:03:04;;;;;;;7.20;0.85;;;;;;;-146.27;63.12;82024.63;5071808;28;20021;-74
2023/07/25 07:05:30;;;;;;;5.00;0.80;;;;;;;-146.27;64.37;82106.97;5072179;28;20496;-74
2023/07/25 07:07:56;;;;;;;4.03;0.68;;;;;;;-146.27;65.31;82135.09;5071984;28;20060;-74
2023/07/25 07:10:21;;;;;;;1.92;0.70;;;;;;;-146.27;66.14;82044.72;5072295;28;20028;-74
2023/07/25 07:12:47;;;;;;;3.50;0.70;;;;;;;-146.27;65.84;82088.91;5071914;28;20408;-73
2023/07/25 07:15:14;;;;;;;2.95;0.63;;;;;;;-146.27;64.60;82068.81;5072115;28;20031;-74
2023/07/25 07:17:41;;;;;;;8.88;0.90;;;;;;;-146.27;65.00;82044.72;5071929;28;20036;-73
2023/07/25 07:20:07;;;;;;;2.88;0.65;;;;;;;-146.27;66.34;82086.91;5072130;28;20032;-73
2023/07/25 07:22:32;;;;;;;5.57;0.70;;;;;;;-146.27;65.39;82046.72;5071849;28;20412;-73
2023/07/25 07:24:58;;;;;;;5.45;0.70;;;;;;;-146.27;65.75;82036.69;5071909;28;20024;-73
2023/07/25 07:27:23;;;;;;;3.45;0.80;;;;;;;-146.27;63.39;81996.50;5071467;28;20035;-73
2023/07/25 07:29:51;;;;;;;3.65;0.77;;;;;;;-146.27;62.04;82002.53;5071979;28;20035;-73
2023/07/25 07:32:17;;;;;;;3.35;0.65;;;;;;;-146.27;63.78;82050.75;5071757;28;20020;-73
2023/07/25 07:34:42;;;;;;;6.00;0.80;;;;;;;-146.27;63.45;82034.66;5071673;28;20023;-73
2023/07/25 07:37:08;;;;;;;5.90;0.70;;;;;;;-146.27;63.07;82010.56;5071945;28;20119;-73
2023/07/25 07:39:33;;;;;;;3.45;0.65;;;;;;;-146.27;62.43;81972.41;5071205;28;20028;-73
2023/07/25 07:41:58;;;;;;;5.72;0.85;;;;;;;-146.27;61.15;81978.44;5071462;28;20020;-73
2023/07/25 07:44:24;;;;;;;1.92;0.43;;;;;;;-146.27;61.01;81990.47;5071653;28;20469;-73
2023/07/25 07:46:49;;;;;;;3.92;1.48;;;;;;;-146.27;60.04;81958.34;5070578;28;20032;-73
2023/07/25 07:49:14;;;;;;;3.63;0.73;;;;;;;-146.27;60.66;81952.31;5070650;28;20039;-73
2023/07/25 07:51:40;;;;;;;5.97;0.80;;;;;;;-146.27;58.97;81904.13;5070862;28;20313;-73
2023/07/25 07:54:05;;;;;;;2.72;0.55;;;;;;;-146.27;60.60;81946.28;5070757;28;20025;-74
2023/07/25 07:56:31;;;;;;;5.65;0.90;;;;;;;-146.27;61.14;81918.16;5071241;28;20033;-73
2023/07/25 07:58:56;;;;;;;6.47;0.70;;;;;;;-146.27;61.75;81920.19;5071408;28;20021;-73
2023/07/25 08:01:21;;;;;;;2.78;0.90;;;;;;;-146.27;57.65;81906.13;5070912;28;20034;-73
2023/07/25 08:03:47;;;;;;;2.22;0.47;;;;;;;-146.27;57.41;81888.03;5070439;28;20208;-73
2023/07/25 08:06:13;;;;;;;4.15;0.80;;;;;;;-146.27;57.78;81914.16;5070584;28;20025;-73
2023/07/25 08:08:40;;;;;;;5.00;0.60;;;;;;;-146.27;59.73;81942.28;5070067;28;20040;-73
2023/07/25 08:11:05;;;;;;;2.47;0.70;;;;;;;-146.27;60.48;81910.13;5070915;28;20502;-73
2023/07/25 08:13:30;;;;;;;4.40;0.60;;;;;;;-146.27;62.05;81859.94;5070519;28;20040;-73
2023/07/25 08:15:56;;;;;;;4.00;0.85;;;;;;;-146.27;57.10;81853.91;5070825;28;20338;-73
2023/07/25 08:18:21;;;;;;;1.98;0.50;;;;;;;-146.27;57.41;81823.78;5070644;28;20363;-73
2023/07/25 08:20:47;;;;;;;1.02;0.45;;;;;;;-146.27;58.26;81817.75;5068939;28;20373;-73
2023/07/25 08:23:12;;;;;;;1.27;0.70;;;;;;;-146.27;59.18;81845.88;5070757;28;20388;-72
2023/07/25 08:25:41;;;;;;;3.40;0.85;;;;;;;-146.27;58.51;81880.00;5070416;28;20020;-73
2023/07/25 08:28:06;;;;;;;3.10;0.50;;;;;;;-146.27;56.85;81855.91;5068984;28;20475;-74
2023/07/25 08:30:32;;;;;;;9.40;0.68;;;;;;;-146.27;56.38;81890.06;5070404;28;20020;-72
2023/07/25 08:32:57;;;;;;;6.28;0.60;;;;;;;-146.27;56.00;81849.88;5070088;28;20064;-73
2023/07/25 08:35:23;;;;;;;3.92;0.73;;;;;;;-146.27;56.07;81849.88;5070488;28;20024;-73
2023/07/25 08:37:49;;;;;;;1.00;0.57;;;;;;;-146.27;56.18;81785.59;5070357;28;20028;-73
2023/07/25 08:40:15;;;;;;;1.17;0.30;;;;;;;-146.27;56.82;81735.41;5069531;28;20023;-74
2023/07/25 08:42:44;;;;;;;4.68;0.93;;;;;;;-146.27;54.25;81709.28;5070010;28;20050;-74
2023/07/25 08:45:10;;;;;;;4.22;0.60;;;;;;;-146.27;52.11;81723.34;5070165;28;20036;-74
2023/07/25 08:47:40;;;;;;;3.20;0.90;;;;;;;-146.27;51.87;81705.28;5070018;28;20028;-72
2023/07/25 08:50:14;;;;;;;4.68;0.70;;;;;;;-146.27;54.80;81729.38;5070061;28;20050;-73
2023/07/25 08:52:40;;;;;;;;;;;;;;;-146.27;52.87;81703.25;5070668;28;20059;-72
2023/07/25 08:55:06;;;;;;;2.53;0.57;;;;;;;-146.27;51.46;81761.50;5069320;28;19924;-72
2023/07/25 08:57:32;;;;;;;7.05;0.77;;;;;;;-146.27;53.85;81735.41;5069743;28;20082;-72
2023/07/25 08:59:58;;;;;;;2.15;0.60;;;;;;;-146.27;53.51;81745.44;5069987;28;20035;-73
2023/07/25 09:02:25;;;;;;;2.17;0.60;;;;;;;-146.27;51.52;81821.75;5069835;28;20115;-74
2023/07/25 09:04:52;;;;;;;2.40;0.60;;;;;;;-146.27;53.98;81789.63;5070219;28;20012;-72
2023/07/25 09:07:17;;;;;;;1.33;0.43;;;;;;;-146.27;54.37;81711.28;5069729;28;20132;-73
2023/07/25 09:09:42;;;;;;;5.22;0.90;;;;;;;-146.27;52.08;81757.50;5069674;28;20127;-73
2023/07/25 09:12:08;;;;;;;1.25;0.60;;;;;;;-146.27;53.13;81681.16;5069628;28;20036;-73
2023/07/25 09:14:38;;;;;;;4.35;0.60;;;;;;;-146.27;56.01;81769.53;5068409;28;20121;-73
2023/07/25 09:17:06;;;;;;;2.00;0.50;;;;;;;-146.27;51.35;81775.56;5069078;28;20388;-72
2023/07/25 09:19:32;;;;;;;2.72;0.65;;;;;;;-146.27;54.97;81775.56;5068162;28;20082;-73
2023/07/25 09:21:58;;;;;;;2.60;0.70;;;;;;;-146.27;53.49;81713.31;5068446;28;20427;-74
2023/07/25 09:24:35;;;;;;;5.90;0.50;;;;;;;-146.27;51.79;81641.00;5069263;28;20086;-73
2023/07/25 09:27:00;;;;;;;5.05;0.60;;;;;;;-146.27;52.86;81568.69;5068347;28;20086;-73
2023/07/25 09:29:28;;;;;;;1.88;0.43;;;;;;;-146.27;53.10;81462.25;5069461;28;20407;-73
2023/07/25 09:31:54;;;;;;;2.63;0.57;;;;;;;-146.27;51.29;81383.94;5069802;28;20468;-73
2023/07/25 09:34:23;;;;;;;5.13;0.70;;;;;;;-146.27;47.53;81391.97;5069414;28;20472;-73
2023/07/25 09:36:49;;;;;;;3.72;0.57;;;;;;;-146.27;47.80;81379.91;5069421;28;20473;-73
2023/07/25 09:39:16;;;;;;;3.63;0.68;;;;;;;-146.27;47.91;81395.97;5069506;28;20020;-73
2023/07/25 09:41:42;;;;;;;5.25;0.80;;;;;;;-146.27;48.25;81480.31;5069877;28;20070;-73
2023/07/25 09:44:08;;;;;;;2.25;0.60;;;;;;;-146.27;48.96;81488.38;5069396;28;20048;-73
2023/07/25 09:46:34;;;;;;;3.78;0.60;;;;;;;-146.27;50.27;81512.47;5067996;28;20059;-73
2023/07/25 09:49:00;;;;;;;5.05;0.90;;;;;;;-146.27;51.80;81542.59;5069524;28;20023;-73
2023/07/25 09:51:26;;;;;;;2.22;0.80;;;;;;;-146.27;50.48;81566.69;5069444;28;20025;-73
2023/07/25 09:53:53;;;;;;;4.50;0.60;;;;;;;-146.27;49.20;81548.59;5067777;28;20399;-73
2023/07/25 09:56:24;;;;;;;4.53;0.47;;;;;;;-146.27;48.87;81584.75;5069055;28;20059;-73
2023/07/25 09:58:49;;;;;;;7.63;0.98;;;;;;;-146.27;49.91;81576.72;5068332;28;20067;-73
2023/07/25 10:01:15;;;;;;;1.20;0.50;;;;;;;-146.27;48.93;81600.84;5068910;28;20060;-73
2023/07/25 10:03:45;;;;;;;4.97;0.82;;;;;;;-146.27;48.93;81586.78;5068149;28;20039;-73
2023/07/25 10:06:11;;;;;;;2.30;0.50;;;;;;;-146.27;48.22;81574.72;5069381;28;20086;-73
2023/07/25 10:08:43;;;;;;;2.30;0.40;;;;;;;-146.27;50.25;81536.56;5068226;28;20418;-73
2023/07/25 10:11:11;;;;;;;4.32;0.55;;;;;;;-146.27;50.82;81498.41;5069318;28;20177;-73
2023/07/25 10:13:37;;;;;;;4.18;0.40;;;;;;;-146.27;49.93;81452.22;5069076;28;20071;-73
2023/07/25 10:16:04;;;;;;;3.58;0.65;;;;;;;-146.27;48.88;81424.09;5069178;28;20020;-73
2023/07/25 10:18:33;;;;;;;1.60;0.60;;;;;;;-146.27;46.82;81464.25;5068531;28;20028;-73
2023/07/25 10:20:58;;;;;;;5.10;1.13;;;;;;;-146.27;49.01;81464.25;5069043;28;20029;-73
2023/07/25 10:23:32;;;;;;;4.90;0.70;;;;;;;-146.27;48.76;81416.06;5069085;28;20373;-72
2023/07/25 10:26:08;;;;;;;;;;;;;;;-146.27;47.35;81400.00;5069702;28;20051;-73
2023/07/25 10:28:33;;;;;;;2.28;0.20;;;;;;;-146.27;47.08;81468.28;5068826;28;19969;-74
2023/07/25 10:30:59;;;;;;;2.30;0.50;;;;;;;-146.27;48.90;81520.50;5068937;28;20468;-73
2023/07/25 10:33:24;;;;;;;3.67;0.60;;;;;;;-146.27;49.21;81440.16;5068379;28;20387;-74
2023/07/25 10:35:54;;;;;;;2.78;0.50;;;;;;;-146.27;49.48;81426.09;5068628;28;20028;-73
2023/07/25 10:38:33;;;;;;;3.30;0.50;;;;;;;-146.27;47.03;81369.88;5072561;28;20032;-73
2023/07/25 10:41:13;;;;;;;1.85;0.60;;;;;;;-146.27;49.40;81323.69;5072012;28;20031;-73
2023/07/25 10:43:44;;;;;;;0.70;0.38;;;;;;;-146.27;46.41;81275.47;5071945;28;20039;-72
2023/07/25 10:46:13;;;;;;;2.40;0.60;;;;;;;-146.27;45.79;81199.16;5072387;28;20366;-73
2023/07/25 10:48:47;;;;;;;3.17;0.45;;;;;;;-146.27;46.15;81179.09;5070983;28;20020;-73
2023/07/25 10:51:15;;;;;;;1.50;0.30;;;;;;;-146.27;45.78;81217.25;5071457;28;20021;-73
2023/07/25 10:54:01;;;;;;;1.48;0.40;;;;;;;-146.27;46.18;81271.47;5071256;28;20028;-73
2023/07/25 10:56:27;;;;;;;1.30;0.40;;;;;;;-146.27;46.35;81313.63;5063161;28;20024;-71
2023/07/25 10:59:09;;;;;;;1.25;0.90;;;;;;;-146.27;47.26;81291.53;5062457;28;20186;-71
2023/07/25 11:01:36;;;;;;;2.75;0.52;;;;;;;-146.27;46.45;81287.53;5071721;28;20028;-72
2023/07/25 11:04:20;;;;;;;1.45;0.57;;;;;;;-146.27;47.96;81231.31;5072190;28;20023;-71
2023/07/25 11:06:47;;;;;;;1.85;0.47;;;;;;;-146.27;46.44;81275.47;5070487;28;20074;-71
2023/07/25 11:09:12;;;;;;;6.93;0.63;;;;;;;-146.27;47.02;81267.44;5070047;28;20021;-70
2023/07/25 11:11:47;;;;;;;0.47;0.40;;;;;;;-146.27;45.48;81199.16;5071835;28;20020;-71